Time;durP1;ratioP1;P1;durP2;ratioP2;P2;SDS_P1;SDS_P2;PMS_P1;PMS_P2;Temp;Humidity;BMP_temperature;BMP_pressure;BME280_temperature;BME280_humidity;BME280_pressure;Samples;Min_cycle;Max_cycle;Signal;HPM_P1;HPM_P2
2023/05/15 00:00:26;;;;;;;37.38;19.83;;;14.50;67.20;;;;;;5048873;28;20185;-75
2023/05/15 00:02:54;;;;;;;35.88;19.48;;;14.50;67.80;;;;;;5015622;28;20053;-75
2023/05/15 00:05:21;;;;;;;34.70;19.05;;;14.40;67.60;;;;;;5049615;28;20049;-75
2023/05/15 00:07:48;;;;;;;33.70;18.00;;;14.30;67.70;;;;;;5024382;28;20104;-75
2023/05/15 00:10:15;;;;;;;36.45;18.30;;;14.20;67.70;;;;;;5025087;28;20395;-75
2023/05/15 00:12:43;;;;;;;36.90;18.08;;;14.20;68.00;;;;;;5031614;28;20073;-75
2023/05/15 00:15:10;;;;;;;32.17;18.02;;;14.10;68.60;;;;;;5034203;28;20515;-75
2023/05/15 00:17:37;;;;;;;35.38;17.95;;;13.90;69.20;;;;;;5044041;28;20617;-75
2023/05/15 00:20:06;;;;;;;33.57;18.57;;;13.80;69.90;;;;;;5046446;28;20136;-75
2023/05/15 00:22:33;;;;;;;33.47;18.33;;;13.60;70.30;;;;;;5027010;28;20807;-75
2023/05/15 00:25:00;;;;;;;29.80;13.60;;;13.60;70.30;;;;;;5013130;28;20061;-76
2023/05/15 00:27:27;;;;;;;33.15;17.55;;;13.50;71.10;;;;;;5048848;28;20556;-75
2023/05/15 00:29:55;;;;;;;31.98;16.67;;;13.50;71.50;;;;;;5044976;28;20137;-75
2023/05/15 00:32:22;;;;;;;39.37;16.77;;;13.30;71.80;;;;;;5014012;28;20577;-75
2023/05/15 00:34:49;;;;;;;33.42;18.15;;;13.10;72.00;;;;;;5039329;28;20368;-75
2023/05/15 00:37:16;;;;;;;29.30;16.90;;;13.00;72.90;;;;;;5054714;28;20050;-75
2023/05/15 00:39:42;;;;;;;30.27;17.73;;;12.90;72.80;;;;;;5011960;28;20523;-75
2023/05/15 00:42:10;;;;;;;31.52;17.25;;;12.90;73.00;;;;;;5036262;28;20067;-75
2023/05/15 00:44:40;;;;;;;33.60;17.80;;;12.80;73.60;;;;;;5049102;28;20076;-75
2023/05/15 00:47:11;;;;;;;31.85;17.00;;;12.70;73.50;;;;;;5034548;28;20256;-75
2023/05/15 00:49:38;;;;;;;34.72;18.10;;;12.70;73.00;;;;;;5027663;28;20049;-75
2023/05/15 00:52:07;;;;;;;29.17;16.80;;;12.70;72.50;;;;;;5041647;28;20480;-75
2023/05/15 00:54:34;;;;;;;35.47;17.90;;;12.80;72.10;;;;;;5039949;28;20658;-75
2023/05/15 00:57:03;;;;;;;29.37;16.67;;;12.80;72.10;;;;;;5051907;28;20120;-75
2023/05/15 00:59:31;;;;;;;30.17;16.77;;;12.90;72.10;;;;;;5030593;28;20273;-75
2023/05/15 01:01:58;;;;;;;30.27;15.80;;;12.90;72.20;;;;;;5021927;28;20105;-75
2023/05/15 01:04:27;;;;;;;28.30;15.98;;;12.80;73.10;;;;;;5029499;28;20140;-75
2023/05/15 01:06:54;;;;;;;31.73;17.65;;;12.80;73.30;;;;;;5021155;28;20231;-75
2023/05/15 01:09:24;;;;;;;32.10;15.67;;;12.70;73.10;;;;;;5048202;28;20115;-75
2023/05/15 01:11:54;;;;;;;28.48;16.38;;;12.70;73.70;;;;;;5048055;28;20845;-75
2023/05/15 01:14:21;;;;;;;32.88;14.05;;;12.60;73.20;;;;;;5030244;28;20128;-75
2023/05/15 01:16:48;;;;;;;30.17;16.77;;;12.60;73.00;;;;;;5053162;28;20192;-75
2023/05/15 01:19:15;;;;;;;29.65;16.38;;;12.60;72.90;;;;;;5047985;28;20052;-75
2023/05/15 01:22:18;;;;;;;29.37;16.27;;;12.60;73.00;;;;;;5046870;28;20046;-75
2023/05/15 01:25:17;;;;;;;29.23;15.77;;;12.60;73.50;;;;;;4997376;28;20670;-75
2023/05/15 01:27:48;;;;;;;32.40;15.65;;;12.60;72.50;;;;;;5037648;28;20597;-75
2023/05/15 01:30:22;;;;;;;32.17;15.45;;;12.60;72.70;;;;;;5038924;28;20176;-75
2023/05/15 01:32:55;;;;;;;30.80;16.15;;;12.50;72.70;;;;;;5047943;28;20220;-75
2023/05/15 01:35:28;;;;;;;31.97;17.87;;;12.50;72.80;;;;;;5048334;28;20506;-75
2023/05/15 01:38:08;;;;;;;30.73;17.00;;;12.50;73.00;;;;;;5034695;28;20259;-75
2023/05/15 01:40:35;;;;;;;31.67;18.10;;;12.50;73.00;;;;;;5045738;28;20103;-75
2023/05/15 01:43:13;;;;;;;32.38;16.98;;;12.50;73.20;;;;;;5013364;28;20456;-75
2023/05/15 01:45:43;;;;;;;34.25;18.02;;;12.50;72.70;;;;;;5037816;28;20455;-75
2023/05/15 01:48:12;;;;;;;30.23;16.07;;;12.50;72.70;;;;;;5013764;28;20503;-75
2023/05/15 01:50:40;;;;;;;30.08;16.63;;;12.50;72.80;;;;;;5021078;28;20295;-75
2023/05/15 01:53:09;;;;;;;32.05;17.35;;;12.50;72.50;;;;;;5013485;28;20484;-75
2023/05/15 01:55:37;;;;;;;33.70;18.13;;;12.50;73.10;;;;;;5025584;28;20230;-75
2023/05/15 01:58:06;;;;;;;31.60;16.75;;;12.50;72.90;;;;;;5042434;28;20623;-75
2023/05/15 02:00:34;;;;;;;33.80;17.93;;;12.50;73.00;;;;;;5025719;28;20049;-75
2023/05/15 02:03:01;;;;;;;31.55;15.88;;;12.50;73.20;;;;;;5027735;28;20248;-75
2023/05/15 02:05:30;;;;;;;30.88;16.38;;;12.50;73.00;;;;;;5033175;28;20147;-75
2023/05/15 02:07:57;;;;;;;31.17;16.50;;;12.50;73.70;;;;;;5020688;28;20141;-75
2023/05/15 02:10:25;;;;;;;34.58;18.92;;;12.50;73.70;;;;;;5048278;28;20050;-75
2023/05/15 02:12:54;;;;;;;31.20;17.33;;;12.50;73.50;;;;;;5012618;28;20133;-75
2023/05/15 02:15:24;;;;;;;36.13;18.73;;;12.50;73.10;;;;;;5029762;28;20265;-75
2023/05/15 02:17:51;;;;;;;34.88;18.75;;;12.40;73.10;;;;;;5046203;28;20797;-75
2023/05/15 02:20:18;;;;;;;32.78;18.45;;;12.50;73.20;;;;;;5012895;28;20100;-75
2023/05/15 02:22:45;;;;;;;32.15;17.23;;;12.50;73.20;;;;;;5042820;28;20140;-75
2023/05/15 02:25:12;;;;;;;32.97;17.03;;;12.50;73.00;;;;;;5045057;28;20049;-75
2023/05/15 02:27:47;;;;;;;32.25;17.58;;;12.50;72.60;;;;;;5017746;28;20609;-75
2023/05/15 02:30:34;;;;;;;29.98;17.30;;;12.50;72.80;;;;;;5032175;28;20048;-75
2023/05/15 02:33:27;;;;;;;30.42;16.90;;;12.50;72.80;;;;;;5004672;28;20049;-75
2023/05/15 02:35:59;;;;;;;34.70;14.63;;;12.50;72.70;;;;;;5038569;28;20164;-75
2023/05/15 02:38:29;;;;;;;31.27;16.57;;;12.50;73.60;;;;;;5057688;28;20142;-75
2023/05/15 02:40:57;;;;;;;41.03;13.48;;;12.50;73.70;;;;;;5032607;28;20281;-75
2023/05/15 02:43:26;;;;;;;33.55;17.23;;;12.40;74.00;;;;;;5031874;28;20107;-75
2023/05/15 02:45:55;;;;;;;29.13;15.93;;;12.30;74.20;;;;;;5053689;28;20132;-75
2023/05/15 02:48:22;;;;;;;32.40;16.23;;;12.30;74.40;;;;;;5019160;28;20518;-75
2023/05/15 02:50:51;;;;;;;33.00;17.77;;;12.20;73.90;;;;;;5039081;28;20045;-75
2023/05/15 02:53:18;;;;;;;33.58;17.83;;;12.20;74.30;;;;;;5043783;28;20249;-76
2023/05/15 02:55:45;;;;;;;33.58;18.23;;;12.20;74.10;;;;;;5038465;28;20064;-75
2023/05/15 02:58:12;;;;;;;31.15;16.60;;;12.20;73.90;;;;;;5043085;28;20052;-75
2023/05/15 03:00:39;;;;;;;29.55;16.92;;;12.20;74.30;;;;;;5041543;28;20077;-76
2023/05/15 03:03:07;;;;;;;30.00;17.10;;;12.20;74.50;;;;;;5042563;28;20099;-75
2023/05/15 03:05:34;;;;;;;30.52;17.38;;;12.30;74.60;;;;;;5014761;28;20257;-75
2023/05/15 03:08:01;;;;;;;33.17;17.00;;;12.30;74.30;;;;;;5037103;28;20196;-75
2023/05/15 03:10:28;;;;;;;37.67;17.48;;;12.30;74.50;;;;;;5041927;28;20079;-75
2023/05/15 03:12:57;;;;;;;31.67;16.85;;;12.30;74.50;;;;;;5015478;28;20442;-75
2023/05/15 03:15:24;;;;;;;34.33;17.80;;;12.30;74.30;;;;;;5049673;28;20061;-75
2023/05/15 03:17:51;;;;;;;30.65;16.63;;;12.40;74.50;;;;;;5031857;28;20268;-75
2023/05/15 03:20:20;;;;;;;37.47;18.70;;;12.40;74.70;;;;;;5032088;28;20053;-75
2023/05/15 03:22:47;;;;;;;35.28;17.52;;;12.40;74.70;;;;;;5030662;28;20079;-75
2023/05/15 03:25:14;;;;;;;32.42;17.23;;;12.30;74.70;;;;;;5030622;28;20061;-75
2023/05/15 03:27:41;;;;;;;33.00;17.47;;;12.40;74.20;;;;;;5040804;28;20654;-75
2023/05/15 03:30:09;;;;;;;30.75;16.02;;;12.40;74.20;;;;;;5035618;28;20279;-75
2023/05/15 03:32:36;;;;;;;33.00;15.73;;;12.40;73.90;;;;;;5045051;28;20045;-75
2023/05/15 03:35:03;;;;;;;31.02;16.73;;;12.30;74.70;;;;;;5034640;28;20761;-75
2023/05/15 03:37:31;;;;;;;31.30;15.02;;;12.30;75.20;;;;;;5046071;28;20042;-75
2023/05/15 03:39:58;;;;;;;30.40;16.57;;;12.20;75.00;;;;;;5033178;28;20129;-75
2023/05/15 03:42:26;;;;;;;31.35;14.23;;;12.10;75.80;;;;;;5014580;28;20253;-75
2023/05/15 03:44:54;;;;;;;26.83;15.18;;;12.00;76.20;;;;;;5019580;28;20140;-75
2023/05/15 03:47:21;;;;;;;30.48;11.95;;;11.90;76.00;;;;;;5019128;28;20042;-75
2023/05/15 03:49:52;;;;;;;31.63;12.57;;;11.90;76.00;;;;;;5033526;28;20052;-75
2023/05/15 03:52:19;;;;;;;27.27;13.90;;;11.90;76.60;;;;;;5023201;28;20452;-75
2023/05/15 03:54:48;;;;;;;27.33;14.27;;;11.70;76.40;;;;;;5034273;28;20248;-75
2023/05/15 03:57:15;;;;;;;28.40;13.40;;;11.70;77.00;;;;;;5034723;28;20553;-75
2023/05/15 03:59:41;;;;;;;29.75;15.23;;;11.60;77.20;;;;;;5014799;28;20126;-75
2023/05/15 04:02:09;;;;;;;29.70;13.95;;;11.50;77.10;;;;;;5049212;28;20051;-75
2023/05/15 04:04:37;;;;;;;29.50;15.33;;;11.50;77.60;;;;;;5049194;28;20045;-75
2023/05/15 04:07:04;;;;;;;27.27;15.00;;;11.40;77.00;;;;;;5025617;28;20364;-75
2023/05/15 04:09:31;;;;;;;32.40;15.90;;;11.40;76.60;;;;;;5044857;28;20066;-75
2023/05/15 04:11:59;;;;;;;31.25;16.10;;;11.40;76.50;;;;;;5039041;28;20042;-75
2023/05/15 04:14:26;;;;;;;29.55;14.57;;;11.40;76.50;;;;;;5032969;28;20059;-75
2023/05/15 04:16:53;;;;;;;31.70;15.37;;;11.40;76.00;;;;;;5031760;28;20140;-75
2023/05/15 04:19:20;;;;;;;30.67;16.67;;;11.50;76.10;;;;;;5017236;28;20271;-75
2023/05/15 04:21:47;;;;;;;31.27;15.57;;;11.40;76.20;;;;;;5032875;28;20125;-75
2023/05/15 04:24:14;;;;;;;32.10;15.07;;;11.40;75.80;;;;;;5030739;28;20052;-75
2023/05/15 04:26:41;;;;;;;31.38;15.48;;;11.40;76.20;;;;;;5042490;28;20061;-75
2023/05/15 04:29:09;;;;;;;28.37;14.60;;;11.40;76.10;;;;;;5039341;28;20156;-75
2023/05/15 04:31:37;;;;;;;30.92;15.38;;;11.40;76.20;;;;;;5045357;28;20268;-75
2023/05/15 04:34:04;;;;;;;31.63;16.30;;;11.30;76.00;;;;;;5037377;28;20498;-75
2023/05/15 04:36:31;;;;;;;27.73;14.07;;;11.30;75.90;;;;;;5040727;28;20097;-75
2023/05/15 04:38:58;;;;;;;26.27;13.40;;;11.40;75.80;;;;;;5014114;28;20053;-75
2023/05/15 04:41:25;;;;;;;26.67;13.97;;;11.40;75.50;;;;;;5035860;28;20064;-75
2023/05/15 04:43:52;;;;;;;28.48;14.70;;;11.40;75.30;;;;;;5049152;28;20264;-75
2023/05/15 04:46:20;;;;;;;26.63;13.23;;;11.40;75.00;;;;;;5035152;28;20519;-75
2023/05/15 04:48:47;;;;;;;27.00;13.93;;;11.50;75.00;;;;;;5055616;28;20075;-75
2023/05/15 04:51:14;;;;;;;27.58;13.95;;;11.50;75.00;;;;;;5032082;28;20050;-75
2023/05/15 04:53:41;;;;;;;29.03;14.30;;;11.50;75.00;;;;;;5050790;28;20056;-75
2023/05/15 04:56:08;;;;;;;26.05;13.18;;;11.50;75.20;;;;;;5021317;28;20766;-75
2023/05/15 04:58:35;;;;;;;27.40;14.45;;;11.40;74.90;;;;;;5034099;28;20048;-75
2023/05/15 05:01:02;;;;;;;26.10;14.60;;;11.40;74.70;;;;;;5034153;28;20410;-75
2023/05/15 05:03:30;;;;;;;26.95;13.98;;;11.40;74.70;;;;;;5045433;28;20087;-75
2023/05/15 05:05:57;;;;;;;25.13;13.77;;;11.40;74.60;;;;;;5047278;28;20617;-75
2023/05/15 05:08:24;;;;;;;29.50;14.60;;;11.40;74.60;;;;;;5031139;28;20261;-74
2023/05/15 05:10:55;;;;;;;27.98;14.68;;;11.40;74.70;;;;;;5030090;28;20643;-75
2023/05/15 05:13:22;;;;;;;25.63;13.68;;;11.40;74.80;;;;;;5044419;28;20049;-74
2023/05/15 05:15:49;;;;;;;29.08;15.45;;;11.50;74.70;;;;;;5048884;28;20488;-75
2023/05/15 05:18:16;;;;;;;29.37;16.10;;;11.50;74.60;;;;;;5029819;28;20049;-74
2023/05/15 05:20:45;;;;;;;32.30;16.02;;;11.50;74.50;;;;;;5014174;28;20245;-75
2023/05/15 05:23:13;;;;;;;26.02;13.80;;;11.50;74.70;;;;;;5029897;28;20060;-75
2023/05/15 05:25:40;;;;;;;27.30;14.70;;;11.50;74.50;;;;;;5030843;28;20050;-75
2023/05/15 05:28:07;;;;;;;25.98;13.82;;;11.50;74.10;;;;;;5027514;28;20064;-75
2023/05/15 05:30:34;;;;;;;24.67;12.70;;;11.50;74.40;;;;;;5029639;28;20058;-75
2023/05/15 05:33:01;;;;;;;29.95;14.45;;;11.50;74.80;;;;;;5029822;28;20271;-75
2023/05/15 05:35:28;;;;;;;26.30;13.80;;;11.40;74.80;;;;;;5020287;28;20140;-74
2023/05/15 05:37:57;;;;;;;25.45;13.77;;;11.40;74.50;;;;;;5044560;28;20050;-75
2023/05/15 05:40:24;;;;;;;26.23;14.35;;;11.40;74.90;;;;;;5024309;28;20049;-75
2023/05/15 05:42:51;;;;;;;24.20;13.90;;;11.30;74.60;;;;;;5027441;28;20064;-74
2023/05/15 05:45:18;;;;;;;25.42;13.27;;;11.40;74.70;;;;;;5009785;28;20256;-75
2023/05/15 05:47:45;;;;;;;24.95;11.13;;;11.40;74.30;;;;;;5025024;28;20049;-75
2023/05/15 05:50:13;;;;;;;14.27;6.00;;;11.40;74.70;;;;;;5027244;28;20072;-74
2023/05/15 05:52:40;;;;;;;25.27;13.70;;;11.40;74.50;;;;;;5025828;28;20583;-75
2023/05/15 05:55:09;;;;;;;25.87;13.70;;;11.40;75.20;;;;;;5026544;28;20857;-75
2023/05/15 05:57:36;;;;;;;24.90;13.57;;;11.30;75.30;;;;;;5048825;28;20257;-75
2023/05/15 06:00:05;;;;;;;28.83;14.32;;;11.30;75.10;;;;;;5043445;28;20063;-75
2023/05/15 06:02:36;;;;;;;27.13;13.48;;;11.30;75.00;;;;;;5048315;28;20061;-75
2023/05/15 06:05:05;;;;;;;24.45;12.82;;;11.40;74.80;;;;;;5029344;28;20053;-75
2023/05/15 06:07:32;;;;;;;27.20;14.37;;;11.40;74.80;;;;;;5026232;28;20131;-75
2023/05/15 06:10:00;;;;;;;22.38;13.27;;;11.40;75.10;;;;;;5027075;28;20249;-74
2023/05/15 06:12:28;;;;;;;26.27;14.45;;;11.40;75.30;;;;;;5031042;28;20061;-74
2023/05/15 06:14:55;;;;;;;23.77;14.05;;;11.40;75.20;;;;;;5034803;28;20575;-74
2023/05/15 06:17:22;;;;;;;25.52;13.23;;;11.40;75.20;;;;;;5028560;28;20050;-74
2023/05/15 06:19:50;;;;;;;25.10;13.63;;;11.40;75.20;;;;;;5030463;28;20049;-74
2023/05/15 06:22:17;;;;;;;25.95;13.63;;;11.50;75.10;;;;;;5028623;28;21211;-75
2023/05/15 06:24:44;;;;;;;24.52;13.27;;;11.50;75.40;;;;;;5030984;28;20546;-75
2023/05/15 06:27:11;;;;;;;26.90;14.30;;;11.50;75.40;;;;;;5028362;28;20080;-74
2023/05/15 06:29:40;;;;;;;24.73;13.00;;;11.50;75.20;;;;;;5036490;28;20051;-74
2023/05/15 06:32:08;;;;;;;24.70;13.53;;;11.60;74.90;;;;;;5031967;28;20049;-75
2023/05/15 06:34:35;;;;;;;23.00;13.57;;;11.70;75.20;;;;;;5046359;28;20255;-75
2023/05/15 06:37:02;;;;;;;24.23;13.57;;;11.70;75.10;;;;;;5030288;28;20054;-75
2023/05/15 06:39:33;;;;;;;23.33;13.15;;;11.70;75.10;;;;;;5041786;28;20128;-75
2023/05/15 06:42:00;;;;;;;24.08;12.57;;;11.70;75.20;;;;;;5029216;28;20048;-75
2023/05/15 06:44:30;;;;;;;21.67;12.43;;;11.70;75.30;;;;;;5031790;28;20042;-75
2023/05/15 06:46:59;;;;;;;21.38;11.73;;;11.70;75.40;;;;;;5044829;28;20304;-75
2023/05/15 06:49:26;;;;;;;24.25;13.25;;;11.80;75.40;;;;;;5038903;28;20123;-75
2023/05/15 06:51:53;;;;;;;22.38;10.18;;;11.80;76.30;;;;;;5045689;28;20957;-75
2023/05/15 06:54:21;;;;;;;23.05;13.02;;;11.80;77.20;;;;;;5037122;28;20058;-74
2023/05/15 06:56:48;;;;;;;23.37;13.20;;;11.70;76.60;;;;;;5038558;28;20052;-75
2023/05/15 06:59:15;;;;;;;20.90;9.40;;;11.80;76.30;;;;;;5036399;28;20256;-75
2023/05/15 07:01:42;;;;;;;22.83;13.32;;;11.80;76.40;;;;;;5031968;28;20059;-74
2023/05/15 07:04:10;;;;;;;21.73;12.73;;;11.80;76.60;;;;;;5038109;28;20046;-73
2023/05/15 07:06:38;;;;;;;21.00;13.55;;;11.80;76.30;;;;;;5043934;28;20056;-74
2023/05/15 07:09:05;;;;;;;23.27;13.30;;;11.90;76.40;;;;;;5039352;28;20096;-75
2023/05/15 07:11:36;;;;;;;23.05;12.77;;;11.90;76.80;;;;;;5031968;28;20432;-76
2023/05/15 07:14:03;;;;;;;21.95;11.63;;;11.90;76.80;;;;;;5047890;28;20061;-76
2023/05/15 07:16:30;;;;;;;20.15;12.40;;;11.90;76.50;;;;;;5048156;28;20064;-77
2023/05/15 07:18:57;;;;;;;21.90;13.23;;;11.90;77.10;;;;;;5048431;28;20127;-75
2023/05/15 07:21:26;;;;;;;21.17;12.00;;;12.00;76.60;;;;;;5026715;28;20045;-77
2023/05/15 07:23:53;;;;;;;19.63;11.90;;;12.00;77.50;;;;;;5037017;28;20292;-76
2023/05/15 07:26:20;;;;;;;19.65;11.60;;;12.10;77.30;;;;;;5036005;28;20049;-76
2023/05/15 07:28:47;;;;;;;20.83;11.73;;;12.10;77.20;;;;;;5043945;28;20053;-75
2023/05/15 07:31:14;;;;;;;21.17;11.85;;;12.20;77.20;;;;;;5039237;28;20055;-76
2023/05/15 07:33:41;;;;;;;21.20;12.67;;;12.20;77.10;;;;;;5046004;28;20167;-75
2023/05/15 07:36:08;;;;;;;19.60;11.27;;;12.20;76.80;;;;;;5046451;28;20269;-75
2023/05/15 07:38:37;;;;;;;20.85;12.00;;;12.20;77.00;;;;;;5028904;28;20049;-75
2023/05/15 07:41:04;;;;;;;22.00;12.32;;;12.30;77.10;;;;;;5044863;28;20057;-75
2023/05/15 07:43:32;;;;;;;19.85;12.20;;;12.30;77.40;;;;;;5027087;28;20053;-76
2023/05/15 07:46:00;;;;;;;19.73;12.77;;;12.40;77.30;;;;;;5027477;28;20598;-75
2023/05/15 07:48:27;;;;;;;19.92;11.82;;;12.50;77.30;;;;;;5042760;28;21206;-76
2023/05/15 07:50:55;;;;;;;22.70;13.20;;;12.50;77.20;;;;;;5043680;28;20624;-76
2023/05/15 07:53:22;;;;;;;20.92;12.88;;;12.50;77.10;;;;;;5041900;28;20170;-76
2023/05/15 07:55:51;;;;;;;20.70;11.07;;;12.50;77.90;;;;;;5042804;28;20475;-75
2023/05/15 07:58:18;;;;;;;20.33;12.63;;;12.50;77.60;;;;;;5033783;28;20050;-76
2023/05/15 08:00:45;;;;;;;20.17;11.15;;;12.60;77.20;;;;;;5013222;28;20363;-75
2023/05/15 08:03:12;;;;;;;19.83;12.52;;;12.60;76.90;;;;;;5031087;28;20048;-76
2023/05/15 08:05:39;;;;;;;18.00;9.73;;;12.70;76.70;;;;;;5045981;28;20145;-76
2023/05/15 08:08:06;;;;;;;19.50;11.50;;;12.80;77.00;;;;;;5048044;28;20140;-76
2023/05/15 08:10:33;;;;;;;20.73;11.83;;;12.80;76.50;;;;;;5029571;28;20440;-76
2023/05/15 08:13:01;;;;;;;18.63;11.95;;;12.90;76.80;;;;;;5023605;28;20263;-76
2023/05/15 08:15:29;;;;;;;20.63;12.30;;;12.90;77.20;;;;;;5030037;28;20053;-76
2023/05/15 08:17:56;;;;;;;22.88;13.68;;;13.00;76.80;;;;;;5029102;28;20061;-76
2023/05/15 08:20:23;;;;;;;19.73;12.23;;;13.00;76.90;;;;;;5020318;28;20045;-76
2023/05/15 08:22:51;;;;;;;13.40;7.37;;;13.10;76.70;;;;;;5025419;28;20054;-76
2023/05/15 08:25:19;;;;;;;23.42;13.15;;;13.10;76.60;;;;;;5021849;28;20285;-76
2023/05/15 08:27:46;;;;;;;20.52;11.80;;;13.20;76.40;;;;;;5043218;28;20546;-76
2023/05/15 08:30:15;;;;;;;20.60;12.00;;;13.30;76.20;;;;;;5046686;28;20083;-76
2023/05/15 08:32:44;;;;;;;20.73;12.32;;;13.30;76.20;;;;;;5050170;28;20052;-76
2023/05/15 08:35:13;;;;;;;19.30;10.80;;;13.30;76.20;;;;;;5044634;28;20049;-76
2023/05/15 08:37:40;;;;;;;22.27;13.20;;;13.40;75.90;;;;;;5045083;28;20256;-76
2023/05/15 08:40:09;;;;;;;21.50;13.30;;;13.50;75.70;;;;;;5045945;28;20060;-76
2023/05/15 08:45:14;;;;;;;20.05;11.43;;;13.50;75.60;;;;;;4992679;28;20068;-76
2023/05/15 08:47:42;;;;;;;16.80;8.83;;;13.60;75.10;;;;;;4998925;28;20058;-75
2023/05/15 08:50:13;;;;;;;21.42;13.38;;;13.60;75.30;;;;;;4996698;28;20253;-76
2023/05/15 08:52:41;;;;;;;22.67;11.88;;;13.70;75.40;;;;;;4990777;28;20559;-76
2023/05/15 08:55:09;;;;;;;20.17;12.45;;;13.70;75.00;;;;;;5008533;28;20058;-76
2023/05/15 08:57:36;;;;;;;21.90;12.68;;;13.80;75.00;;;;;;4996080;28;20535;-75
2023/05/15 09:00:07;;;;;;;22.90;12.40;;;13.90;74.80;;;;;;4989916;28;20063;-76
2023/05/15 09:02:36;;;;;;;22.00;13.63;;;13.90;75.20;;;;;;5018168;28;20254;-76
2023/05/15 09:05:04;;;;;;;20.98;13.23;;;13.90;75.40;;;;;;5016420;28;20129;-75
2023/05/15 09:07:31;;;;;;;20.80;12.65;;;14.00;75.10;;;;;;4989973;28;20601;-76
2023/05/15 09:09:58;;;;;;;18.80;10.98;;;14.10;74.90;;;;;;4989176;28;20518;-75
2023/05/15 09:12:26;;;;;;;17.70;10.20;;;14.10;74.30;;;;;;5008573;28;21026;-76
2023/05/15 09:15:09;;;;;;;22.58;12.25;;;14.20;74.50;;;;;;5008176;28;20285;-76
2023/05/15 09:17:38;;;;;;;19.65;12.80;;;14.30;73.60;;;;;;4971679;28;20153;-76
2023/05/15 09:20:06;;;;;;;19.15;12.25;;;14.30;73.70;;;;;;4992400;28;20061;-76
2023/05/15 09:22:35;;;;;;;21.77;13.90;;;14.40;73.60;;;;;;4988982;28;20520;-76
2023/05/15 09:25:03;;;;;;;21.57;14.13;;;14.40;73.60;;;;;;5008291;28;20065;-76
2023/05/15 09:27:30;;;;;;;18.67;11.82;;;14.50;73.20;;;;;;4990536;28;20246;-76
2023/05/15 09:30:09;;;;;;;18.15;9.48;;;14.50;72.80;;;;;;5005081;28;20504;-76
2023/05/15 09:32:38;;;;;;;21.83;11.50;;;14.60;71.40;;;;;;5006696;28;20678;-76
2023/05/15 09:35:24;;;;;;;18.23;11.52;;;14.60;71.20;;;;;;4989546;28;20047;-76
2023/05/15 09:37:58;;;;;;;19.23;12.40;;;14.60;70.90;;;;;;4989232;28;20564;-76
2023/05/15 09:40:29;;;;;;;15.25;8.15;;;14.70;71.00;;;;;;4989548;28;20257;-76
2023/05/15 09:42:56;;;;;;;17.85;9.18;;;14.70;70.90;;;;;;4989266;28;20081;-76
2023/05/15 09:45:25;;;;;;;16.15;10.70;;;14.70;69.80;;;;;;5007951;28;20109;-76
2023/05/15 09:47:54;;;;;;;14.90;9.60;;;14.80;69.90;;;;;;4972353;28;20413;-76
2023/05/15 09:50:22;;;;;;;15.67;9.97;;;14.80;68.40;;;;;;4987189;28;20057;-76
2023/05/15 09:52:49;;;;;;;14.77;9.45;;;14.90;68.50;;;;;;5010891;28;20254;-76
2023/05/15 09:55:18;;;;;;;18.73;11.02;;;15.00;67.60;;;;;;4988715;28;20129;-76
2023/05/15 09:57:45;;;;;;;17.70;9.68;;;15.00;68.60;;;;;;4981348;28;20086;-76
2023/05/15 10:00:13;;;;;;;17.50;10.18;;;15.00;69.30;;;;;;4989635;28;20517;-76
2023/05/15 10:02:41;;;;;;;16.63;9.70;;;15.10;69.20;;;;;;4972990;28;20154;-76
2023/05/15 10:05:12;;;;;;;18.63;10.63;;;15.20;69.10;;;;;;4988680;28;21290;-77
2023/05/15 10:07:39;;;;;;;18.73;11.13;;;15.30;69.50;;;;;;5022225;28;20058;-77
2023/05/15 10:10:06;;;;;;;17.90;11.10;;;15.30;69.10;;;;;;5006577;28;20053;-79
2023/05/15 10:12:35;;;;;;;16.33;11.07;;;15.40;68.90;;;;;;4986275;28;20050;-79
2023/05/15 10:15:04;;;;;;;17.77;11.50;;;15.50;68.80;;;;;;4969082;28;20524;-76
2023/05/15 10:17:34;;;;;;;17.73;11.45;;;15.60;69.40;;;;;;4985965;28;20832;-82
2023/05/15 10:20:05;;;;;;;18.98;12.25;;;15.60;70.00;;;;;;5016630;28;20735;-78
2023/05/15 10:22:38;;;;;;;17.48;10.68;;;15.70;70.10;;;;;;5016275;28;20051;-77
2023/05/15 10:25:13;;;;;;;15.23;10.27;;;15.80;69.70;;;;;;4984126;28;20054;-77
2023/05/15 10:27:42;;;;;;;17.70;11.97;;;15.90;69.80;;;;;;4989169;28;20046;-78
2023/05/15 10:30:10;;;;;;;15.98;10.73;;;16.00;69.50;;;;;;4970153;28;20394;-78
2023/05/15 10:32:40;;;;;;;16.52;11.35;;;16.00;69.30;;;;;;4987431;28;20047;-78
2023/05/15 10:35:09;;;;;;;18.27;12.02;;;16.10;69.00;;;;;;4985113;28;20570;-78
2023/05/15 10:37:39;;;;;;;15.57;9.98;;;16.20;69.20;;;;;;4989387;28;20189;-76
2023/05/15 10:40:09;;;;;;;18.70;12.03;;;16.20;69.60;;;;;;5005574;28;20939;-77
2023/05/15 10:42:38;;;;;;;17.40;10.35;;;16.40;69.70;;;;;;4980278;28;20317;-76
2023/05/15 10:45:08;;;;;;;18.35;11.90;;;16.40;69.30;;;;;;4973487;28;20057;-77
2023/05/15 10:47:37;;;;;;;17.95;10.60;;;16.40;66.90;;;;;;5007503;28;20061;-77
2023/05/15 10:50:05;;;;;;;16.63;10.65;;;16.50;67.20;;;;;;4989252;28;20074;-76
2023/05/15 10:52:32;;;;;;;14.27;8.63;;;16.50;66.20;;;;;;4988230;28;20059;-77
2023/05/15 10:55:02;;;;;;;18.60;11.20;;;16.50;66.10;;;;;;4989152;28;20289;-77
2023/05/15 10:57:30;;;;;;;15.00;8.85;;;16.50;66.20;;;;;;4992293;28;20142;-76
2023/05/15 10:59:57;;;;;;;17.00;10.68;;;16.60;65.80;;;;;;4992690;28;20058;-77
2023/05/15 11:02:28;;;;;;;18.17;9.57;;;16.60;66.20;;;;;;4989212;28;20417;-77
2023/05/15 11:04:56;;;;;;;14.13;9.80;;;16.60;67.00;;;;;;5018264;28;20046;-77
2023/05/15 11:07:24;;;;;;;16.27;10.88;;;16.70;66.70;;;;;;4997025;28;20643;-77
2023/05/15 11:09:52;;;;;;;16.05;10.48;;;16.70;66.30;;;;;;5014092;28;20050;-76
2023/05/15 11:12:20;;;;;;;17.15;10.65;;;16.80;65.80;;;;;;5006849;28;20054;-77
2023/05/15 11:15:20;;;;;;;13.50;8.98;;;16.80;65.70;;;;;;4992182;28;20130;-77
2023/05/15 11:18:03;;;;;;;17.23;11.33;;;16.90;65.50;;;;;;4986450;28;20047;-77
2023/05/15 11:20:34;;;;;;;16.38;12.40;;;17.00;65.00;;;;;;4973124;28;20286;-76
2023/05/15 11:23:01;;;;;;;15.88;10.50;;;17.00;65.00;;;;;;4988760;28;20506;-76
2023/05/15 11:25:32;;;;;;;14.25;9.25;;;17.00;65.10;;;;;;5008047;28;20121;-76
2023/05/15 11:28:00;;;;;;;13.40;7.65;;;17.00;65.10;;;;;;5002444;28;20058;-76
2023/05/15 11:30:38;;;;;;;13.57;9.30;;;17.00;64.30;;;;;;5002119;28;20158;-77
2023/05/15 11:33:10;;;;;;;14.32;9.70;;;17.00;63.20;;;;;;5013747;28;20251;-77
2023/05/15 11:35:40;;;;;;;13.27;8.30;;;17.00;64.80;;;;;;4985566;28;20064;-77
2023/05/15 11:38:14;;;;;;;17.65;11.55;;;17.00;64.70;;;;;;5006799;28;20116;-78
2023/05/15 11:40:46;;;;;;;12.90;9.80;;;17.00;64.10;;;;;;5003585;28;20054;-77
2023/05/15 11:43:22;;;;;;;15.47;10.67;;;17.10;64.30;;;;;;4999943;28;20062;-77
2023/05/15 11:45:51;;;;;;;12.30;7.38;;;17.10;64.70;;;;;;4981759;28;20287;-77
2023/05/15 11:48:20;;;;;;;20.65;9.55;;;17.20;63.50;;;;;;4963817;28;20042;-78
2023/05/15 11:50:47;;;;;;;15.30;10.15;;;17.20;62.90;;;;;;4981094;28;20048;-78
2023/05/15 11:53:15;;;;;;;11.75;6.90;;;17.20;63.00;;;;;;4983632;28;20050;-77
2023/05/15 11:55:44;;;;;;;14.03;9.40;;;17.30;62.40;;;;;;5023872;28;20497;-77
2023/05/15 11:58:13;;;;;;;14.00;9.55;;;17.30;61.80;;;;;;4992349;28;20361;-77
2023/05/15 12:00:42;;;;;;;14.10;7.65;;;17.30;62.90;;;;;;4996138;28;20059;-77
2023/05/15 12:03:17;;;;;;;14.70;7.82;;;17.40;62.30;;;;;;4996338;28;20058;-77
2023/05/15 12:05:45;;;;;;;12.02;6.50;;;17.40;61.60;;;;;;5012708;28;20054;-77
2023/05/15 12:08:12;;;;;;;15.57;10.40;;;17.50;61.20;;;;;;5005289;28;20990;-77
2023/05/15 12:10:42;;;;;;;13.07;7.85;;;17.50;61.90;;;;;;4989268;28;20254;-77
2023/05/15 12:13:09;;;;;;;11.90;8.00;;;17.50;62.00;;;;;;4982768;28;20109;-77
2023/05/15 12:15:38;;;;;;;12.55;8.55;;;17.50;61.00;;;;;;5006740;28;20054;-77
2023/05/15 12:18:07;;;;;;;10.13;5.53;;;17.60;61.20;;;;;;4990555;28;20042;-77
2023/05/15 12:20:36;;;;;;;11.83;8.13;;;17.60;61.90;;;;;;4973126;28;20061;-77
2023/05/15 12:23:04;;;;;;;13.02;8.05;;;17.70;62.30;;;;;;4988337;28;21181;-77
2023/05/15 12:25:32;;;;;;;12.60;7.88;;;17.80;61.10;;;;;;5006126;28;20050;-78
2023/05/15 12:28:00;;;;;;;10.05;7.50;;;17.80;62.40;;;;;;4985904;28;20085;-78
2023/05/15 12:30:27;;;;;;;13.75;8.60;;;17.80;62.60;;;;;;5002594;28;20055;-78
2023/05/15 12:32:58;;;;;;;11.63;7.50;;;17.90;62.00;;;;;;4986704;28;20054;-77
2023/05/15 12:35:27;;;;;;;12.55;8.75;;;18.00;62.50;;;;;;4965393;28;20274;-78
2023/05/15 12:37:55;;;;;;;12.50;9.60;;;18.00;62.50;;;;;;5008256;28;20511;-78